Time;durP1;ratioP1;P1;durP2;ratioP2;P2;SDS_P1;SDS_P2;PMS_P1;PMS_P2;Temp;Humidity;BMP_temperature;BMP_pressure;BME280_temperature;BME280_humidity;BME280_pressure;Samples;Min_cycle;Max_cycle;Signal;HPM_P1;HPM_P2
2023/09/09 00:04:29;;;;;;;97.93;72.72;;;20.10;50.80;;;;;;20592983;28;20050;-42
2023/09/09 00:14:30;;;;;;;101.05;77.05;;;20.00;48.40;;;;;;20589319;28;20053;-41
2023/09/09 00:24:31;;;;;;;96.47;71.53;;;19.90;40.10;;;;;;20588432;28;20051;-41
2023/09/09 00:34:33;;;;;;;120.45;90.30;;;19.80;42.40;;;;;;20589080;28;20035;-41
2023/09/09 00:44:34;;;;;;;112.90;85.47;;;19.80;51.00;;;;;;20587057;28;20054;-41
2023/09/09 00:54:35;;;;;;;124.00;90.45;;;19.70;62.90;;;;;;20585659;28;20041;-41
2023/09/09 01:04:35;;;;;;;126.50;92.07;;;19.60;54.80;;;;;;20587260;28;20035;-41
2023/09/09 01:14:36;;;;;;;128.57;94.10;;;19.60;65.60;;;;;;20586682;28;20038;-41
2023/09/09 01:24:38;;;;;;;130.57;92.93;;;19.60;89.50;;;;;;20584718;28;20112;-41
2023/09/09 01:34:39;;;;;;;132.15;93.68;;;19.50;83.80;;;;;;20584142;28;20491;-41
2023/09/09 01:44:39;;;;;;;133.13;99.15;;;19.50;92.20;;;;;;20584338;28;20058;-42
2023/09/09 01:54:40;;;;;;;123.33;89.43;;;19.40;73.50;;;;;;20582309;28;20402;-41
2023/09/09 02:04:40;;;;;;;120.67;88.60;;;19.30;79.50;;;;;;20583772;28;20035;-41
2023/09/09 02:14:41;;;;;;;120.65;88.18;;;19.20;91.70;;;;;;20582453;28;20760;-41
2023/09/09 02:24:42;;;;;;;124.07;87.53;;;19.00;78.90;;;;;;20577537;28;20567;-41
2023/09/09 02:34:42;;;;;;;135.90;96.40;;;18.80;83.20;;;;;;20583492;28;20081;-41
2023/09/09 02:44:43;;;;;;;141.73;98.43;;;18.80;91.30;;;;;;20592189;28;20053;-41
2023/09/09 02:54:44;;;;;;;129.80;93.47;;;18.80;94.20;;;;;;20595320;28;20043;-41
2023/09/09 03:04:46;;;;;;;130.77;94.70;;;18.70;94.90;;;;;;20596573;28;20504;-41
2023/09/09 03:14:47;;;;;;;106.53;83.40;;;18.70;92.90;;;;;;20595377;28;20050;-41
2023/09/09 03:24:48;;;;;;;105.40;80.18;;;18.70;97.40;;;;;;20593173;28;20364;-41
2023/09/09 03:34:48;;;;;;;90.57;71.60;;;18.60;99.90;;;;;;20593375;28;20397;-41
2023/09/09 03:44:49;;;;;;;86.95;65.65;;;18.40;99.90;;;;;;20593329;28;20043;-41
2023/09/09 03:54:49;;;;;;;79.37;61.67;;;18.30;99.90;;;;;;20590645;28;20089;-41
2023/09/09 04:04:50;;;;;;;70.95;56.33;;;18.20;99.90;;;;;;20593560;28;20046;-41
2023/09/09 04:14:51;;;;;;;64.20;49.38;;;18.10;99.90;;;;;;20590377;28;20050;-41
2023/09/09 04:24:53;;;;;;;59.25;43.88;;;18.00;99.90;;;;;;20586761;28;20050;-41
2023/09/09 04:34:54;;;;;;;63.35;48.85;;;17.90;99.90;;;;;;20589571;28;20438;-41
2023/09/09 04:44:55;;;;;;;55.50;44.58;;;17.80;99.90;;;;;;20588933;28;20138;-41
2023/09/09 04:54:55;;;;;;;60.22;45.67;;;17.80;99.90;;;;;;20586261;28;20183;-41
2023/09/09 05:04:56;;;;;;;52.88;38.83;;;17.70;99.90;;;;;;20586762;28;20134;-41
2023/09/09 05:14:56;;;;;;;60.70;44.08;;;17.60;99.90;;;;;;20586009;28;20046;-41
2023/09/09 05:24:57;;;;;;;63.40;46.03;;;17.60;99.90;;;;;;20583545;28;20055;-41
2023/09/09 05:34:57;;;;;;;54.40;42.33;;;17.70;99.90;;;;;;20586248;28;20052;-41
2023/09/09 05:44:58;;;;;;;52.28;40.13;;;17.70;99.90;;;;;;20585107;28;20046;-41
2023/09/09 05:54:58;;;;;;;58.63;41.58;;;17.50;99.90;;;;;;20581757;28;20042;-41
2023/09/09 06:04:59;;;;;;;61.13;42.90;;;17.40;99.90;;;;;;20583441;28;20494;-41
2023/09/09 06:14:59;;;;;;;66.00;44.75;;;17.50;99.90;;;;;;20586486;28;20042;-41
2023/09/09 06:25:01;;;;;;;65.95;45.97;;;17.50;99.90;;;;;;20597317;28;20067;-41
2023/09/09 06:35:02;;;;;;;66.10;45.53;;;17.80;99.90;;;;;;20597460;28;20038;-41
2023/09/09 06:45:04;;;;;;;69.45;47.10;;;17.60;99.90;;;;;;20598021;28;20046;-41
2023/09/09 06:55:06;;;;;;;66.95;43.63;;;17.60;99.90;;;;;;20595456;28;20046;-41
2023/09/09 07:05:07;;;;;;;77.55;47.65;;;17.80;99.90;;;;;;20596531;28;20350;-41
2023/09/09 07:15:09;;;;;;;92.70;55.15;;;17.80;99.90;;;;;;20594772;28;20046;-41
2023/09/09 07:25:09;;;;;;;89.95;52.92;;;17.90;99.90;;;;;;20593487;28;20042;-41
2023/09/09 07:35:10;;;;;;;108.07;65.03;;;18.20;99.90;;;;;;20593964;28;20051;-41
2023/09/09 07:45:11;;;;;;;123.53;74.70;;;18.30;99.90;;;;;;20593645;28;20047;-41
2023/09/09 07:55:12;;;;;;;161.57;103.45;;;18.60;99.90;;;;;;20590340;28;20443;-42
2023/09/09 08:05:13;;;;;;;152.30;99.57;;;18.80;99.90;;;;;;20592412;28;20490;-42
2023/09/09 08:15:13;;;;;;;112.95;81.85;;;19.40;99.90;;;;;;20589555;28;20152;-42
2023/09/09 08:25:14;;;;;;;83.90;61.38;;;19.80;99.90;;;;;;20589658;28;20051;-42
2023/09/09 08:35:15;;;;;;;97.00;71.13;;;20.20;99.90;;;;;;20589956;28;20379;-42
2023/09/09 08:45:21;;;;;;;100.03;75.35;;;20.70;99.90;;;;;;20587647;28;20105;-42
2023/09/09 08:55:22;;;;;;;63.73;51.80;;;21.30;99.90;;;;;;20585735;28;20518;-42
2023/09/09 09:05:25;;;;;;;71.10;59.57;;;21.70;93.70;;;;;;20589271;28;20399;-42
2023/09/09 09:15:26;;;;;;;48.53;41.13;;;22.10;23.80;;;;;;20586153;28;21001;-41
2023/09/09 09:25:27;;;;;;;62.03;52.75;;;22.60;1.00;;;;;;20586029;28;20129;-42
2023/09/09 09:35:30;;;;;;;51.72;44.00;;;23.40;1.00;;;;;;20586626;28;20042;-42
2023/09/09 09:45:31;;;;;;;45.25;39.65;;;23.60;1.00;;;;;;20584742;28;20414;-42
2023/09/09 09:55:35;;;;;;;33.63;29.30;;;23.90;1.00;;;;;;20582338;28;20049;-42
2023/09/09 10:05:37;;;;;;;24.23;21.35;;;23.90;1.00;;;;;;20583675;28;20598;-42
2023/09/09 10:15:40;;;;;;;30.20;25.45;;;24.00;1.00;;;;;;20583261;28;20272;-42
2023/09/09 10:25:42;;;;;;;24.15;19.65;;;24.20;1.00;;;;;;20581571;28;20132;-42
2023/09/09 10:35:49;;;;;;;13.07;11.52;;;24.40;1.00;;;;;;20584384;28;20145;-42
2023/09/09 10:45:50;;;;;;;15.57;13.97;;;24.70;1.00;;;;;;20581105;28;20043;-42
2023/09/09 10:55:53;;;;;;;18.58;16.13;;;24.90;1.00;;;;;;20580431;28;20419;-42
2023/09/09 11:06:02;;;;;;;17.77;15.30;;;25.50;1.00;;;;;;20591805;28;20042;-42
2023/09/09 11:16:05;;;;;;;20.35;16.27;;;26.20;1.00;;;;;;20594523;28;20061;-42
2023/09/09 11:26:06;;;;;;;13.63;12.15;;;26.70;1.00;;;;;;20594702;28;20453;-42
2023/09/09 11:36:06;;;;;;;9.43;7.47;;;27.10;1.00;;;;;;20594574;28;20430;-42
2023/09/09 11:46:07;;;;;;;8.32;6.78;;;27.10;1.00;;;;;;20592736;28;20399;-42
2023/09/09 11:56:08;;;;;;;11.52;9.90;;;26.80;1.00;;;;;;20591435;28;20039;-42
2023/09/09 12:06:11;;;;;;;12.95;11.73;;;26.80;1.00;;;;;;20593771;28;20065;-42
2023/09/09 12:16:12;;;;;;;13.25;10.80;;;27.70;1.00;;;;;;20588999;28;20041;-42
2023/09/09 12:26:14;;;;;;;12.30;9.50;;;28.70;1.00;;;;;;20588591;28;20043;-42
2023/09/09 12:36:20;;;;;;;13.73;10.18;;;28.80;1.00;;;;;;20590469;28;20395;-42
2023/09/09 12:46:27;;;;;;;;;;;28.40;1.00;;;;;;20587941;28;20055;-42
2023/09/09 12:56:27;;;;;;;9.47;7.80;;;28.80;1.00;;;;;;20587745;28;19918;-42
2023/09/09 13:06:29;;;;;;;13.32;10.65;;;29.00;1.00;;;;;;20588692;28;20051;-42
2023/09/09 13:16:30;;;;;;;10.55;9.02;;;29.30;1.00;;;;;;20583440;28;20414;-43
2023/09/09 13:26:31;;;;;;;10.80;9.70;;;29.30;1.00;;;;;;20583462;28;20031;-43
2023/09/09 13:36:32;;;;;;;8.63;6.90;;;29.30;1.00;;;;;;20585840;28;20042;-42
2023/09/09 13:46:32;;;;;;;8.75;7.68;;;29.10;1.00;;;;;;20584001;28;20055;-42
2023/09/09 13:56:33;;;;;;;9.13;7.20;;;28.70;1.00;;;;;;20585223;28;20042;-42
2023/09/09 14:06:33;;;;;;;10.95;9.85;;;28.90;1.00;;;;;;20584595;28;20391;-42
2023/09/09 14:16:34;;;;;;;10.63;7.90;;;29.00;1.00;;;;;;20567341;28;20049;-42
2023/09/09 14:26:34;;;;;;;10.57;6.47;;;29.10;1.00;;;;;;20583279;28;20074;-42
2023/09/09 14:36:36;;;;;;;10.52;7.72;;;28.80;1.00;;;;;;20587622;28;20075;-42
2023/09/09 14:46:36;;;;;;;8.15;6.82;;;28.60;1.00;;;;;;20597636;28;20134;-42
2023/09/09 14:56:37;;;;;;;9.10;6.78;;;28.40;1.00;;;;;;20597677;28;20045;-42
2023/09/09 15:06:38;;;;;;;7.13;6.43;;;28.60;1.00;;;;;;20596679;28;20549;-43
2023/09/09 15:16:58;;;;;;;8.45;7.00;;;28.40;1.00;;;;;;20594973;28;20043;-42
2023/09/09 15:26:59;;;;;;;9.50;6.55;;;28.30;1.00;;;;;;20594383;28;20070;-42
2023/09/09 15:36:59;;;;;;;9.63;6.32;;;28.20;1.00;;;;;;20592789;28;20122;-42
2023/09/09 15:47:00;;;;;;;17.35;15.25;;;28.00;1.00;;;;;;20593749;28;20060;-42
2023/09/09 15:57:02;;;;;;;7.10;5.70;;;27.80;1.00;;;;;;20588639;28;20078;-42
2023/09/09 16:07:03;;;;;;;7.82;5.63;;;27.70;1.00;;;;;;20591556;28;20097;-42
2023/09/09 16:17:03;;;;;;;6.60;5.60;;;27.50;1.00;;;;;;20591186;28;20034;-42
2023/09/09 16:27:04;;;;;;;14.90;13.40;;;27.30;1.00;;;;;;20586802;28;20042;-42
2023/09/09 16:37:05;;;;;;;16.58;14.27;;;27.10;1.00;;;;;;20589688;28;20054;-42
2023/09/09 16:47:07;;;;;;;12.95;8.35;;;26.90;1.00;;;;;;20590499;28;20053;-42
2023/09/09 16:57:09;;;;;;;12.32;10.80;;;26.80;1.00;;;;;;20585932;28;20491;-42
2023/09/09 17:07:09;;;;;;;13.38;10.15;;;26.60;1.00;;;;;;20588269;28;20050;-42
2023/09/09 17:17:10;;;;;;;18.43;16.43;;;26.30;1.00;;;;;;20587264;28;20050;-42
2023/09/09 17:27:10;;;;;;;25.60;18.50;;;26.20;1.00;;;;;;20583445;28;20438;-42
2023/09/09 17:37:11;;;;;;;12.43;10.85;;;25.90;1.00;;;;;;20584894;28;20034;-42
2023/09/09 17:47:11;;;;;;;10.27;9.23;;;25.60;1.00;;;;;;20584924;28;20046;-42
2023/09/09 17:57:12;;;;;;;18.85;16.95;;;25.40;1.00;;;;;;20585485;28;20041;-42
2023/09/09 18:07:13;;;;;;;11.77;10.52;;;25.00;1.00;;;;;;20584161;28;20042;-42
2023/09/09 18:17:13;;;;;;;11.07;9.63;;;24.80;1.00;;;;;;20596996;28;20050;-42
2023/09/09 18:27:14;;;;;;;16.95;15.13;;;24.60;1.00;;;;;;20598363;28;20420;-42
2023/09/09 18:37:14;;;;;;;16.98;14.65;;;24.30;1.00;;;;;;20599373;28;20994;-42
2023/09/09 18:47:15;;;;;;;13.75;11.93;;;24.10;1.00;;;;;;20598485;28;20057;-42
2023/09/09 18:57:17;;;;;;;15.48;12.80;;;23.80;1.00;;;;;;20595122;28;20509;-42
2023/09/09 19:07:31;;;;;;;13.82;12.35;;;23.60;1.00;;;;;;20597689;28;20046;-42
2023/09/09 19:17:33;;;;;;;16.50;12.85;;;23.50;1.00;;;;;;20595616;28;20042;-42
2023/09/09 19:27:33;;;;;;;14.10;12.60;;;23.30;1.00;;;;;;20593721;28;20087;-42
2023/09/09 19:37:34;;;;;;;13.77;12.32;;;23.10;1.00;;;;;;20595385;28;20509;-42
2023/09/09 19:47:34;;;;;;;14.98;13.50;;;23.00;1.00;;;;;;20592748;28;20503;-42
2023/09/09 19:57:35;;;;;;;14.70;13.20;;;22.90;1.00;;;;;;20589668;28;20489;-42
2023/09/09 20:07:35;;;;;;;16.20;14.57;;;22.70;1.00;;;;;;20592219;28;20069;-42
2023/09/09 20:17:37;;;;;;;16.35;14.65;;;22.60;1.00;;;;;;20591801;28;20041;-42
2023/09/09 20:27:38;;;;;;;15.75;14.15;;;22.50;1.00;;;;;;20589350;28;20129;-42
2023/09/09 20:37:38;;;;;;;17.42;15.07;;;22.30;1.00;;;;;;20589237;28;20039;-42
2023/09/09 20:47:40;;;;;;;16.73;15.02;;;22.20;1.00;;;;;;20590019;28;20050;-41
2023/09/09 20:57:41;;;;;;;17.15;15.35;;;22.10;3.10;;;;;;20585756;28;20423;-42
2023/09/09 21:07:42;;;;;;;18.52;16.73;;;22.00;5.30;;;;;;20587148;28;20429;-42
2023/09/09 21:17:43;;;;;;;17.58;15.88;;;22.00;1.00;;;;;;20587250;28;20050;-42
2023/09/09 21:27:43;;;;;;;18.08;16.17;;;21.90;2.80;;;;;;20584829;28;20046;-41
2023/09/09 21:37:44;;;;;;;17.60;15.90;;;21.80;1.60;;;;;;20587557;28;20129;-42
2023/09/09 21:47:44;;;;;;;36.30;29.50;;;21.70;1.00;;;;;;20584730;28;20069;-42
2023/09/09 21:57:45;;;;;;;30.20;25.80;;;21.70;1.00;;;;;;20583363;28;20058;-42
2023/09/09 22:07:46;;;;;;;25.58;22.52;;;21.50;1.00;;;;;;20584083;28;20047;-41
2023/09/09 22:17:47;;;;;;;23.40;20.90;;;21.40;2.50;;;;;;20584553;28;20254;-41
2023/09/09 22:27:47;;;;;;;21.10;18.95;;;21.40;3.60;;;;;;20583655;28;20492;-41
2023/09/09 22:37:48;;;;;;;19.70;17.70;;;21.30;3.20;;;;;;20582918;28;20371;-41
2023/09/09 22:47:48;;;;;;;18.95;16.98;;;21.20;5.50;;;;;;20583133;28;20098;-41
2023/09/09 22:57:49;;;;;;;19.20;17.15;;;21.10;7.90;;;;;;20584807;28;20061;-42
2023/09/09 23:07:49;;;;;;;18.52;16.63;;;21.10;4.70;;;;;;20597206;28;20035;-41
2023/09/09 23:17:50;;;;;;;20.85;18.75;;;21.00;5.30;;;;;;20595171;28;20565;-42
2023/09/09 23:27:51;;;;;;;19.17;17.25;;;21.00;6.50;;;;;;20594363;28;20065;-42
2023/09/09 23:37:52;;;;;;;21.05;18.20;;;21.20;1.00;;;;;;20593527;28;20069;-42
2023/09/09 23:47:53;;;;;;;21.83;19.08;;;21.10;1.00;;;;;;20594890;28;20079;-41
2023/09/09 23:57:54;;;;;;;21.83;19.63;;;21.10;1.00;;;;;;20591776;28;20338;-42
